sensor_id;sensor_type;location;lat;lon;timestamp;P1;durP1;ratioP1;P2;durP2;ratioP2
47309;SDS011;33046;52.270;6.832;2024-02-26T00:00:53;6.53;;;5.05;;
47309;SDS011;33046;52.270;6.832;2024-02-26T00:03:00;4.18;;;3.33;;
47309;SDS011;33046;52.270;6.832;2024-02-26T00:05:07;4.28;;;3.58;;
47309;SDS011;33046;52.270;6.832;2024-02-26T00:07:14;3.97;;;3.33;;
47309;SDS011;33046;52.270;6.832;2024-02-26T00:09:24;5.32;;;4.15;;
47309;SDS011;33046;52.270;6.832;2024-02-26T00:11:30;4.57;;;4.18;;
47309;SDS011;33046;52.270;6.832;2024-02-26T00:13:37;5.13;;;4.30;;
47309;SDS011;33046;52.270;6.832;2024-02-26T00:15:44;3.95;;;3.50;;
47309;SDS011;33046;52.270;6.832;2024-02-26T00:17:52;5.70;;;4.03;;
47309;SDS011;33046;52.270;6.832;2024-02-26T00:19:59;4.43;;;4.03;;
47309;SDS011;33046;52.270;6.832;2024-02-26T00:22:07;4.50;;;4.10;;
47309;SDS011;33046;52.270;6.832;2024-02-26T00:24:14;5.18;;;4.78;;
47309;SDS011;33046;52.270;6.832;2024-02-26T00:26:21;4.85;;;4.40;;
47309;SDS011;33046;52.270;6.832;2024-02-26T00:28:28;5.35;;;3.90;;
47309;SDS011;33046;52.270;6.832;2024-02-26T00:30:34;4.00;;;3.60;;
47309;SDS011;33046;52.270;6.832;2024-02-26T00:32:41;4.38;;;3.47;;
47309;SDS011;33046;52.270;6.832;2024-02-26T00:34:49;4.93;;;3.92;;
47309;SDS011;33046;52.270;6.832;2024-02-26T00:36:56;4.40;;;3.95;;
47309;SDS011;33046;52.270;6.832;2024-02-26T00:39:03;5.43;;;3.92;;
47309;SDS011;33046;52.270;6.832;2024-02-26T00:41:10;4.22;;;3.65;;
47309;SDS011;33046;52.270;6.832;2024-02-26T00:43:17;4.43;;;3.72;;
47309;SDS011;33046;52.270;6.832;2024-02-26T00:45:24;6.65;;;4.68;;
47309;SDS011;33046;52.270;6.832;2024-02-26T00:47:31;4.90;;;4.40;;
47309;SDS011;33046;52.270;6.832;2024-02-26T00:49:38;8.10;;;4.30;;
47309;SDS011;33046;52.270;6.832;2024-02-26T00:51:46;4.10;;;3.70;;
47309;SDS011;33046;52.270;6.832;2024-02-26T00:53:53;4.78;;;3.30;;
47309;SDS011;33046;52.270;6.832;2024-02-26T00:56:00;5.47;;;3.63;;
47309;SDS011;33046;52.270;6.832;2024-02-26T00:58:07;3.92;;;3.53;;
47309;SDS011;33046;52.270;6.832;2024-02-26T01:00:15;3.45;;;3.15;;
47309;SDS011;33046;52.270;6.832;2024-02-26T01:02:23;4.63;;;4.22;;
47309;SDS011;33046;52.270;6.832;2024-02-26T01:04:30;5.15;;;3.60;;
47309;SDS011;33046;52.270;6.832;2024-02-26T01:06:36;3.58;;;3.20;;
47309;SDS011;33046;52.270;6.832;2024-02-26T01:08:45;4.00;;;3.40;;
47309;SDS011;33046;52.270;6.832;2024-02-26T01:10:51;4.10;;;3.70;;
47309;SDS011;33046;52.270;6.832;2024-02-26T01:12:58;4.47;;;3.92;;
47309;SDS011;33046;52.270;6.832;2024-02-26T01:15:05;3.47;;;3.15;;
47309;SDS011;33046;52.270;6.832;2024-02-26T01:17:13;3.90;;;3.53;;
47309;SDS011;33046;52.270;6.832;2024-02-26T01:19:19;3.10;;;2.80;;
47309;SDS011;33046;52.270;6.832;2024-02-26T01:21:27;3.42;;;2.97;;
47309;SDS011;33046;52.270;6.832;2024-02-26T01:23:33;4.20;;;3.60;;
47309;SDS011;33046;52.270;6.832;2024-02-26T01:25:42;4.00;;;3.22;;
47309;SDS011;33046;52.270;6.832;2024-02-26T01:27:49;5.25;;;3.40;;
47309;SDS011;33046;52.270;6.832;2024-02-26T01:29:55;4.03;;;3.63;;
47309;SDS011;33046;52.270;6.832;2024-02-26T01:32:02;3.60;;;3.30;;
47309;SDS011;33046;52.270;6.832;2024-02-26T01:34:10;3.42;;;3.13;;
47309;SDS011;33046;52.270;6.832;2024-02-26T01:36:16;4.00;;;2.80;;
47309;SDS011;33046;52.270;6.832;2024-02-26T01:38:23;3.25;;;2.95;;
47309;SDS011;33046;52.270;6.832;2024-02-26T01:40:30;4.60;;;3.03;;
47309;SDS011;33046;52.270;6.832;2024-02-26T01:42:39;2.75;;;2.55;;
47309;SDS011;33046;52.270;6.832;2024-02-26T01:44:46;3.28;;;2.97;;
47309;SDS011;33046;52.270;6.832;2024-02-26T01:46:52;4.03;;;3.60;;
47309;SDS011;33046;52.270;6.832;2024-02-26T01:48:59;2.70;;;2.50;;
47309;SDS011;33046;52.270;6.832;2024-02-26T01:51:08;3.28;;;2.88;;
47309;SDS011;33046;52.270;6.832;2024-02-26T01:53:17;3.67;;;2.55;;
47309;SDS011;33046;52.270;6.832;2024-02-26T01:55:24;3.97;;;2.80;;
47309;SDS011;33046;52.270;6.832;2024-02-26T01:57:33;5.03;;;3.17;;
47309;SDS011;33046;52.270;6.832;2024-02-26T01:59:41;4.45;;;3.35;;
47309;SDS011;33046;52.270;6.832;2024-02-26T02:01:48;3.83;;;2.83;;
47309;SDS011;33046;52.270;6.832;2024-02-26T02:04:01;3.10;;;2.42;;
47309;SDS011;33046;52.270;6.832;2024-02-26T02:06:08;4.63;;;2.78;;
47309;SDS011;33046;52.270;6.832;2024-02-26T02:08:15;3.40;;;2.50;;
47309;SDS011;33046;52.270;6.832;2024-02-26T02:10:22;2.92;;;2.63;;
47309;SDS011;33046;52.270;6.832;2024-02-26T02:12:30;7.75;;;2.75;;
47309;SDS011;33046;52.270;6.832;2024-02-26T02:14:38;4.32;;;3.10;;
47309;SDS011;33046;52.270;6.832;2024-02-26T02:16:46;3.10;;;2.60;;
47309;SDS011;33046;52.270;6.832;2024-02-26T02:18:54;3.08;;;2.78;;
47309;SDS011;33046;52.270;6.832;2024-02-26T02:21:02;2.80;;;2.45;;
47309;SDS011;33046;52.270;6.832;2024-02-26T02:23:09;3.63;;;2.75;;
47309;SDS011;33046;52.270;6.832;2024-02-26T02:25:16;4.95;;;2.92;;
47309;SDS011;33046;52.270;6.832;2024-02-26T02:27:23;3.80;;;2.65;;
47309;SDS011;33046;52.270;6.832;2024-02-26T02:29:30;3.13;;;2.53;;
47309;SDS011;33046;52.270;6.832;2024-02-26T02:31:37;3.70;;;2.70;;
47309;SDS011;33046;52.270;6.832;2024-02-26T02:33:44;4.00;;;2.65;;
47309;SDS011;33046;52.270;6.832;2024-02-26T02:35:51;2.92;;;2.45;;
47309;SDS011;33046;52.270;6.832;2024-02-26T02:37:59;2.40;;;1.98;;
47309;SDS011;33046;52.270;6.832;2024-02-26T02:40:07;5.43;;;2.95;;
47309;SDS011;33046;52.270;6.832;2024-02-26T02:42:14;4.40;;;2.50;;
47309;SDS011;33046;52.270;6.832;2024-02-26T02:44:21;2.90;;;2.10;;
47309;SDS011;33046;52.270;6.832;2024-02-26T02:46:28;4.05;;;2.75;;
47309;SDS011;33046;52.270;6.832;2024-02-26T02:48:35;3.05;;;2.35;;
47309;SDS011;33046;52.270;6.832;2024-02-26T02:50:42;2.92;;;2.60;;
47309;SDS011;33046;52.270;6.832;2024-02-26T02:52:49;6.22;;;2.50;;
47309;SDS011;33046;52.270;6.832;2024-02-26T02:54:57;3.05;;;2.33;;
47309;SDS011;33046;52.270;6.832;2024-02-26T02:57:04;4.28;;;3.05;;
47309;SDS011;33046;52.270;6.832;2024-02-26T02:59:11;3.22;;;2.22;;
47309;SDS011;33046;52.270;6.832;2024-02-26T03:01:18;3.60;;;2.05;;
47309;SDS011;33046;52.270;6.832;2024-02-26T03:03:25;2.90;;;2.45;;
47309;SDS011;33046;52.270;6.832;2024-02-26T03:05:32;3.47;;;3.13;;
47309;SDS011;33046;52.270;6.832;2024-02-26T03:07:39;2.83;;;2.55;;
47309;SDS011;33046;52.270;6.832;2024-02-26T03:09:45;2.42;;;2.00;;
47309;SDS011;33046;52.270;6.832;2024-02-26T03:11:54;2.83;;;2.55;;
47309;SDS011;33046;52.270;6.832;2024-02-26T03:14:00;2.70;;;2.00;;
47309;SDS011;33046;52.270;6.832;2024-02-26T03:16:08;2.70;;;1.77;;
47309;SDS011;33046;52.270;6.832;2024-02-26T03:18:15;6.05;;;2.08;;
47309;SDS011;33046;52.270;6.832;2024-02-26T03:20:22;3.20;;;1.83;;
47309;SDS011;33046;52.270;6.832;2024-02-26T03:22:28;4.38;;;2.40;;
47309;SDS011;33046;52.270;6.832;2024-02-26T03:24:35;2.45;;;1.95;;
47309;SDS011;33046;52.270;6.832;2024-02-26T03:26:42;2.42;;;1.80;;
47309;SDS011;33046;52.270;6.832;2024-02-26T03:28:50;2.38;;;2.00;;
47309;SDS011;33046;52.270;6.832;2024-02-26T03:30:57;1.95;;;1.77;;
47309;SDS011;33046;52.270;6.832;2024-02-26T03:33:04;5.53;;;4.05;;
47309;SDS011;33046;52.270;6.832;2024-02-26T03:35:11;2.42;;;1.63;;
47309;SDS011;33046;52.270;6.832;2024-02-26T03:37:18;4.35;;;2.15;;
47309;SDS011;33046;52.270;6.832;2024-02-26T03:39:25;2.40;;;1.52;;
47309;SDS011;33046;52.270;6.832;2024-02-26T03:41:32;3.08;;;2.20;;
47309;SDS011;33046;52.270;6.832;2024-02-26T03:43:39;4.78;;;2.40;;
47309;SDS011;33046;52.270;6.832;2024-02-26T03:45:47;3.63;;;2.08;;
47309;SDS011;33046;52.270;6.832;2024-02-26T03:47:54;2.63;;;2.00;;
47309;SDS011;33046;52.270;6.832;2024-02-26T03:50:01;3.25;;;2.00;;
47309;SDS011;33046;52.270;6.832;2024-02-26T03:52:07;4.20;;;2.67;;
47309;SDS011;33046;52.270;6.832;2024-02-26T03:54:14;2.63;;;2.30;;
47309;SDS011;33046;52.270;6.832;2024-02-26T03:56:21;3.25;;;2.38;;
47309;SDS011;33046;52.270;6.832;2024-02-26T03:58:28;3.58;;;2.60;;
47309;SDS011;33046;52.270;6.832;2024-02-26T04:00:35;2.83;;;2.53;;
47309;SDS011;33046;52.270;6.832;2024-02-26T04:02:43;2.95;;;2.40;;
47309;SDS011;33046;52.270;6.832;2024-02-26T04:04:50;3.28;;;2.22;;
47309;SDS011;33046;52.270;6.832;2024-02-26T04:06:57;3.33;;;2.97;;
47309;SDS011;33046;52.270;6.832;2024-02-26T04:09:04;4.10;;;2.70;;
47309;SDS011;33046;52.270;6.832;2024-02-26T04:11:10;3.72;;;3.38;;
47309;SDS011;33046;52.270;6.832;2024-02-26T04:13:17;3.92;;;3.17;;
47309;SDS011;33046;52.270;6.832;2024-02-26T04:15:24;4.28;;;3.58;;
47309;SDS011;33046;52.270;6.832;2024-02-26T04:17:31;4.60;;;3.33;;
47309;SDS011;33046;52.270;6.832;2024-02-26T04:19:39;3.80;;;3.50;;
47309;SDS011;33046;52.270;6.832;2024-02-26T04:21:46;6.07;;;4.07;;
47309;SDS011;33046;52.270;6.832;2024-02-26T04:23:53;5.38;;;3.65;;
47309;SDS011;33046;52.270;6.832;2024-02-26T04:26:00;4.07;;;3.15;;
47309;SDS011;33046;52.270;6.832;2024-02-26T04:28:07;3.95;;;3.53;;
47309;SDS011;33046;52.270;6.832;2024-02-26T04:30:14;3.78;;;3.33;;
47309;SDS011;33046;52.270;6.832;2024-02-26T04:32:21;4.90;;;3.30;;
47309;SDS011;33046;52.270;6.832;2024-02-26T04:34:28;6.72;;;4.43;;
47309;SDS011;33046;52.270;6.832;2024-02-26T04:36:36;5.32;;;4.25;;
47309;SDS011;33046;52.270;6.832;2024-02-26T04:38:43;3.65;;;3.13;;
47309;SDS011;33046;52.270;6.832;2024-02-26T04:40:50;3.95;;;3.33;;
47309;SDS011;33046;52.270;6.832;2024-02-26T04:42:56;5.03;;;3.03;;
47309;SDS011;33046;52.270;6.832;2024-02-26T04:45:04;3.30;;;2.80;;
47309;SDS011;33046;52.270;6.832;2024-02-26T04:47:11;3.53;;;3.22;;
47309;SDS011;33046;52.270;6.832;2024-02-26T04:49:18;3.78;;;3.38;;
47309;SDS011;33046;52.270;6.832;2024-02-26T04:51:25;4.43;;;3.13;;
47309;SDS011;33046;52.270;6.832;2024-02-26T04:53:36;4.07;;;2.88;;
47309;SDS011;33046;52.270;6.832;2024-02-26T04:55:43;3.00;;;2.70;;
47309;SDS011;33046;52.270;6.832;2024-02-26T04:57:50;3.03;;;2.50;;
47309;SDS011;33046;52.270;6.832;2024-02-26T04:59:56;3.28;;;2.90;;
47309;SDS011;33046;52.270;6.832;2024-02-26T05:02:03;3.63;;;3.33;;
47309;SDS011;33046;52.270;6.832;2024-02-26T05:04:10;2.92;;;2.63;;
47309;SDS011;33046;52.270;6.832;2024-02-26T05:06:18;4.10;;;2.78;;
47309;SDS011;33046;52.270;6.832;2024-02-26T05:08:25;3.60;;;2.40;;
47309;SDS011;33046;52.270;6.832;2024-02-26T05:10:33;3.85;;;2.78;;
47309;SDS011;33046;52.270;6.832;2024-02-26T05:12:40;2.55;;;2.35;;
47309;SDS011;33046;52.270;6.832;2024-02-26T05:14:46;3.22;;;2.53;;
47309;SDS011;33046;52.270;6.832;2024-02-26T05:16:53;3.47;;;2.63;;
47309;SDS011;33046;52.270;6.832;2024-02-26T05:19:00;3.45;;;2.92;;
47309;SDS011;33046;52.270;6.832;2024-02-26T05:21:07;4.28;;;2.10;;
47309;SDS011;33046;52.270;6.832;2024-02-26T05:23:14;3.53;;;2.47;;
47309;SDS011;33046;52.270;6.832;2024-02-26T05:25:21;2.72;;;2.45;;
47309;SDS011;33046;52.270;6.832;2024-02-26T05:27:29;3.63;;;2.30;;
47309;SDS011;33046;52.270;6.832;2024-02-26T05:29:36;3.55;;;2.75;;
47309;SDS011;33046;52.270;6.832;2024-02-26T05:31:43;3.40;;;2.60;;
47309;SDS011;33046;52.270;6.832;2024-02-26T05:33:50;3.33;;;2.35;;
47309;SDS011;33046;52.270;6.832;2024-02-26T05:35:57;4.13;;;2.50;;
47309;SDS011;33046;52.270;6.832;2024-02-26T05:38:04;2.97;;;2.67;;
47309;SDS011;33046;52.270;6.832;2024-02-26T05:40:11;2.42;;;2.22;;
47309;SDS011;33046;52.270;6.832;2024-02-26T05:42:18;3.95;;;2.47;;
47309;SDS011;33046;52.270;6.832;2024-02-26T05:44:27;3.38;;;2.60;;
47309;SDS011;33046;52.270;6.832;2024-02-26T05:46:34;2.97;;;2.30;;
47309;SDS011;33046;52.270;6.832;2024-02-26T05:48:40;3.20;;;2.50;;
47309;SDS011;33046;52.270;6.832;2024-02-26T05:50:47;2.58;;;2.25;;
47309;SDS011;33046;52.270;6.832;2024-02-26T05:52:54;4.32;;;2.67;;
47309;SDS011;33046;52.270;6.832;2024-02-26T05:55:01;3.38;;;2.42;;
47309;SDS011;33046;52.270;6.832;2024-02-26T05:57:08;3.05;;;2.10;;
47309;SDS011;33046;52.270;6.832;2024-02-26T05:59:15;2.65;;;1.95;;
47309;SDS011;33046;52.270;6.832;2024-02-26T06:01:23;2.88;;;2.50;;
47309;SDS011;33046;52.270;6.832;2024-02-26T06:03:30;3.75;;;2.33;;
47309;SDS011;33046;52.270;6.832;2024-02-26T06:05:39;4.22;;;2.42;;
47309;SDS011;33046;52.270;6.832;2024-02-26T06:07:46;4.10;;;2.88;;
47309;SDS011;33046;52.270;6.832;2024-02-26T06:09:53;3.10;;;2.80;;
47309;SDS011;33046;52.270;6.832;2024-02-26T06:12:00;4.55;;;2.80;;
47309;SDS011;33046;52.270;6.832;2024-02-26T06:14:07;6.07;;;3.17;;
47309;SDS011;33046;52.270;6.832;2024-02-26T06:16:14;10.80;;;2.85;;
47309;SDS011;33046;52.270;6.832;2024-02-26T06:18:22;3.28;;;2.08;;
47309;SDS011;33046;52.270;6.832;2024-02-26T06:20:29;6.70;;;3.20;;
47309;SDS011;33046;52.270;6.832;2024-02-26T06:22:36;3.20;;;2.50;;
47309;SDS011;33046;52.270;6.832;2024-02-26T06:24:42;3.28;;;2.58;;
47309;SDS011;33046;52.270;6.832;2024-02-26T06:26:49;3.00;;;2.70;;
47309;SDS011;33046;52.270;6.832;2024-02-26T06:28:56;3.63;;;2.63;;
47309;SDS011;33046;52.270;6.832;2024-02-26T06:31:04;3.72;;;2.90;;
47309;SDS011;33046;52.270;6.832;2024-02-26T06:33:11;3.47;;;3.03;;
47309;SDS011;33046;52.270;6.832;2024-02-26T06:35:19;3.38;;;3.08;;
47309;SDS011;33046;52.270;6.832;2024-02-26T06:37:26;3.13;;;2.75;;
47309;SDS011;33046;52.270;6.832;2024-02-26T06:39:33;4.43;;;2.88;;
47309;SDS011;33046;52.270;6.832;2024-02-26T06:41:40;4.45;;;3.20;;
47309;SDS011;33046;52.270;6.832;2024-02-26T06:43:50;3.65;;;3.30;;
47309;SDS011;33046;52.270;6.832;2024-02-26T06:45:56;4.07;;;3.67;;
47309;SDS011;33046;52.270;6.832;2024-02-26T06:48:03;4.28;;;3.50;;
47309;SDS011;33046;52.270;6.832;2024-02-26T06:50:11;4.38;;;3.97;;
47309;SDS011;33046;52.270;6.832;2024-02-26T06:52:19;4.40;;;3.60;;
47309;SDS011;33046;52.270;6.832;2024-02-26T06:54:26;4.40;;;3.55;;
47309;SDS011;33046;52.270;6.832;2024-02-26T06:56:33;4.80;;;3.83;;
47309;SDS011;33046;52.270;6.832;2024-02-26T06:58:40;4.53;;;4.13;;
47309;SDS011;33046;52.270;6.832;2024-02-26T07:00:47;6.82;;;3.63;;
47309;SDS011;33046;52.270;6.832;2024-02-26T07:02:53;5.15;;;4.57;;
47309;SDS011;33046;52.270;6.832;2024-02-26T07:05:00;5.20;;;4.57;;
47309;SDS011;33046;52.270;6.832;2024-02-26T07:07:07;5.25;;;4.78;;
47309;SDS011;33046;52.270;6.832;2024-02-26T07:09:16;5.00;;;4.47;;
47309;SDS011;33046;52.270;6.832;2024-02-26T07:11:22;5.95;;;4.65;;
47309;SDS011;33046;52.270;6.832;2024-02-26T07:13:29;5.07;;;4.57;;
47309;SDS011;33046;52.270;6.832;2024-02-26T07:15:36;5.68;;;5.00;;
47309;SDS011;33046;52.270;6.832;2024-02-26T07:17:43;6.25;;;5.07;;
47309;SDS011;33046;52.270;6.832;2024-02-26T07:19:50;5.80;;;5.25;;
47309;SDS011;33046;52.270;6.832;2024-02-26T07:21:57;6.97;;;6.28;;
47309;SDS011;33046;52.270;6.832;2024-02-26T07:24:04;7.38;;;6.15;;
47309;SDS011;33046;52.270;6.832;2024-02-26T07:26:12;6.72;;;6.13;;
47309;SDS011;33046;52.270;6.832;2024-02-26T07:28:19;6.68;;;6.05;;
47309;SDS011;33046;52.270;6.832;2024-02-26T07:30:26;7.25;;;6.55;;
47309;SDS011;33046;52.270;6.832;2024-02-26T07:32:33;7.57;;;6.85;;
47309;SDS011;33046;52.270;6.832;2024-02-26T07:34:40;8.05;;;6.43;;
47309;SDS011;33046;52.270;6.832;2024-02-26T07:36:47;7.40;;;6.65;;
47309;SDS011;33046;52.270;6.832;2024-02-26T07:38:54;7.28;;;6.57;;
47309;SDS011;33046;52.270;6.832;2024-02-26T07:41:04;7.47;;;6.75;;
47309;SDS011;33046;52.270;6.832;2024-02-26T07:43:12;8.77;;;7.25;;
47309;SDS011;33046;52.270;6.832;2024-02-26T07:45:19;8.20;;;6.80;;
47309;SDS011;33046;52.270;6.832;2024-02-26T07:47:28;8.20;;;6.75;;
47309;SDS011;33046;52.270;6.832;2024-02-26T07:49:35;7.82;;;6.95;;
47309;SDS011;33046;52.270;6.832;2024-02-26T07:51:42;8.10;;;7.35;;
47309;SDS011;33046;52.270;6.832;2024-02-26T07:53:49;8.32;;;7.50;;
47309;SDS011;33046;52.270;6.832;2024-02-26T07:55:56;9.20;;;7.28;;
47309;SDS011;33046;52.270;6.832;2024-02-26T07:58:03;7.57;;;6.68;;
47309;SDS011;33046;52.270;6.832;2024-02-26T08:00:13;8.38;;;7.10;;
47309;SDS011;33046;52.270;6.832;2024-02-26T08:02:21;8.50;;;7.70;;
47309;SDS011;33046;52.270;6.832;2024-02-26T08:04:27;8.10;;;7.18;;
47309;SDS011;33046;52.270;6.832;2024-02-26T08:06:34;7.30;;;6.30;;
47309;SDS011;33046;52.270;6.832;2024-02-26T08:08:43;8.05;;;6.30;;
47309;SDS011;33046;52.270;6.832;2024-02-26T08:10:50;8.82;;;7.00;;
47309;SDS011;33046;52.270;6.832;2024-02-26T08:12:57;8.85;;;6.40;;
47309;SDS011;33046;52.270;6.832;2024-02-26T08:15:04;7.00;;;6.35;;
47309;SDS011;33046;52.270;6.832;2024-02-26T08:17:13;6.97;;;6.28;;
47309;SDS011;33046;52.270;6.832;2024-02-26T08:19:20;7.60;;;6.47;;
47309;SDS011;33046;52.270;6.832;2024-02-26T08:21:27;8.23;;;7.30;;
47309;SDS011;33046;52.270;6.832;2024-02-26T08:23:34;6.97;;;6.28;;
47309;SDS011;33046;52.270;6.832;2024-02-26T08:25:41;8.13;;;7.32;;
47309;SDS011;33046;52.270;6.832;2024-02-26T08:27:48;8.63;;;7.13;;
47309;SDS011;33046;52.270;6.832;2024-02-26T08:29:54;7.40;;;6.70;;
47309;SDS011;33046;52.270;6.832;2024-02-26T08:32:02;8.27;;;6.35;;
47309;SDS011;33046;52.270;6.832;2024-02-26T08:34:10;7.82;;;6.78;;
47309;SDS011;33046;52.270;6.832;2024-02-26T08:36:17;7.05;;;6.35;;
47309;SDS011;33046;52.270;6.832;2024-02-26T08:38:24;7.95;;;7.03;;
47309;SDS011;33046;52.270;6.832;2024-02-26T08:40:31;7.15;;;6.45;;
47309;SDS011;33046;52.270;6.832;2024-02-26T08:42:38;8.48;;;6.65;;
47309;SDS011;33046;52.270;6.832;2024-02-26T08:44:44;9.98;;;7.40;;
47309;SDS011;33046;52.270;6.832;2024-02-26T08:46:51;8.27;;;6.40;;
47309;SDS011;33046;52.270;6.832;2024-02-26T08:48:58;7.68;;;6.88;;
47309;SDS011;33046;52.270;6.832;2024-02-26T08:51:07;7.15;;;6.45;;
47309;SDS011;33046;52.270;6.832;2024-02-26T08:53:14;7.22;;;6.20;;
47309;SDS011;33046;52.270;6.832;2024-02-26T08:55:24;7.97;;;5.20;;
47309;SDS011;33046;52.270;6.832;2024-02-26T08:57:30;7.07;;;6.22;;
47309;SDS011;33046;52.270;6.832;2024-02-26T08:59:37;7.13;;;6.22;;
47309;SDS011;33046;52.270;6.832;2024-02-26T09:01:44;7.00;;;6.30;;
47309;SDS011;33046;52.270;6.832;2024-02-26T09:03:51;8.88;;;6.65;;
47309;SDS011;33046;52.270;6.832;2024-02-26T09:05:58;10.20;;;8.05;;
47309;SDS011;33046;52.270;6.832;2024-02-26T09:08:06;7.97;;;7.03;;
47309;SDS011;33046;52.270;6.832;2024-02-26T09:10:13;9.00;;;7.07;;
47309;SDS011;33046;52.270;6.832;2024-02-26T09:12:20;8.88;;;7.93;;
47309;SDS011;33046;52.270;6.832;2024-02-26T09:14:27;7.90;;;7.10;;
47309;SDS011;33046;52.270;6.832;2024-02-26T09:16:34;9.80;;;7.57;;
47309;SDS011;33046;52.270;6.832;2024-02-26T09:18:41;8.35;;;7.35;;
47309;SDS011;33046;52.270;6.832;2024-02-26T09:20:48;9.52;;;8.52;;
47309;SDS011;33046;52.270;6.832;2024-02-26T09:22:55;9.80;;;8.77;;
47309;SDS011;33046;52.270;6.832;2024-02-26T09:25:03;10.18;;;8.52;;
47309;SDS011;33046;52.270;6.832;2024-02-26T09:27:10;11.93;;;9.73;;
47309;SDS011;33046;52.270;6.832;2024-02-26T09:29:17;10.27;;;8.63;;
47309;SDS011;33046;52.270;6.832;2024-02-26T09:31:24;10.63;;;9.52;;
47309;SDS011;33046;52.270;6.832;2024-02-26T09:33:31;12.85;;;9.85;;
47309;SDS011;33046;52.270;6.832;2024-02-26T09:35:38;11.02;;;9.73;;
47309;SDS011;33046;52.270;6.832;2024-02-26T09:37:45;11.68;;;10.20;;
47309;SDS011;33046;52.270;6.832;2024-02-26T09:39:51;11.90;;;10.23;;
47309;SDS011;33046;52.270;6.832;2024-02-26T09:42:00;12.43;;;10.57;;
47309;SDS011;33046;52.270;6.832;2024-02-26T09:44:10;13.07;;;11.02;;
47309;SDS011;33046;52.270;6.832;2024-02-26T09:46:19;12.70;;;10.73;;
47309;SDS011;33046;52.270;6.832;2024-02-26T09:48:26;12.88;;;10.68;;
47309;SDS011;33046;52.270;6.832;2024-02-26T09:50:34;12.93;;;10.77;;
47309;SDS011;33046;52.270;6.832;2024-02-26T09:52:41;13.98;;;11.38;;
47309;SDS011;33046;52.270;6.832;2024-02-26T09:54:48;13.27;;;11.00;;
47309;SDS011;33046;52.270;6.832;2024-02-26T09:56:55;11.70;;;10.50;;
47309;SDS011;33046;52.270;6.832;2024-02-26T09:59:10;16.38;;;13.55;;
47309;SDS011;33046;52.270;6.832;2024-02-26T10:01:21;13.98;;;12.35;;
47309;SDS011;33046;52.270;6.832;2024-02-26T10:03:29;15.35;;;13.38;;
47309;SDS011;33046;52.270;6.832;2024-02-26T10:05:40;16.52;;;13.65;;
47309;SDS011;33046;52.270;6.832;2024-02-26T10:07:50;15.05;;;13.18;;
47309;SDS011;33046;52.270;6.832;2024-02-26T10:09:58;15.13;;;13.52;;
47309;SDS011;33046;52.270;6.832;2024-02-26T10:12:06;17.65;;;14.57;;
47309;SDS011;33046;52.270;6.832;2024-02-26T10:14:16;17.52;;;15.00;;
47309;SDS011;33046;52.270;6.832;2024-02-26T10:16:23;18.50;;;15.55;;
47309;SDS011;33046;52.270;6.832;2024-02-26T10:18:44;16.95;;;14.25;;
47309;SDS011;33046;52.270;6.832;2024-02-26T10:21:03;17.70;;;14.15;;
47309;SDS011;33046;52.270;6.832;2024-02-26T10:23:10;18.15;;;14.70;;
47309;SDS011;33046;52.270;6.832;2024-02-26T10:25:17;17.65;;;14.60;;
47309;SDS011;33046;52.270;6.832;2024-02-26T10:27:24;16.85;;;14.15;;
47309;SDS011;33046;52.270;6.832;2024-02-26T10:29:32;19.08;;;15.95;;
47309;SDS011;33046;52.270;6.832;2024-02-26T10:31:41;16.50;;;14.40;;
47309;SDS011;33046;52.270;6.832;2024-02-26T10:33:48;15.63;;;13.18;;
47309;SDS011;33046;52.270;6.832;2024-02-26T10:35:55;15.60;;;13.30;;
47309;SDS011;33046;52.270;6.832;2024-02-26T10:38:02;15.52;;;12.88;;
47309;SDS011;33046;52.270;6.832;2024-02-26T10:40:10;15.80;;;14.20;;
47309;SDS011;33046;52.270;6.832;2024-02-26T10:42:17;15.50;;;12.57;;
47309;SDS011;33046;52.270;6.832;2024-02-26T10:44:23;14.52;;;12.73;;
47309;SDS011;33046;52.270;6.832;2024-02-26T10:46:33;13.40;;;12.02;;
47309;SDS011;33046;52.270;6.832;2024-02-26T10:48:41;13.00;;;11.25;;
47309;SDS011;33046;52.270;6.832;2024-02-26T10:50:56;14.48;;;12.27;;
47309;SDS011;33046;52.270;6.832;2024-02-26T10:53:03;11.80;;;10.52;;
47309;SDS011;33046;52.270;6.832;2024-02-26T10:55:14;14.10;;;10.95;;
47309;SDS011;33046;52.270;6.832;2024-02-26T10:57:22;10.80;;;9.45;;
47309;SDS011;33046;52.270;6.832;2024-02-26T10:59:30;11.18;;;9.77;;
47309;SDS011;33046;52.270;6.832;2024-02-26T11:01:41;11.35;;;9.25;;
47309;SDS011;33046;52.270;6.832;2024-02-26T11:03:50;9.95;;;8.95;;
47309;SDS011;33046;52.270;6.832;2024-02-26T11:05:57;11.90;;;9.48;;
47309;SDS011;33046;52.270;6.832;2024-02-26T11:08:06;13.85;;;10.00;;
47309;SDS011;33046;52.270;6.832;2024-02-26T11:10:13;11.45;;;9.88;;
47309;SDS011;33046;52.270;6.832;2024-02-26T11:12:22;9.98;;;7.72;;
47309;SDS011;33046;52.270;6.832;2024-02-26T11:14:31;8.55;;;7.45;;
47309;SDS011;33046;52.270;6.832;2024-02-26T11:16:38;8.00;;;6.90;;
47309;SDS011;33046;52.270;6.832;2024-02-26T11:18:47;8.85;;;7.60;;
47309;SDS011;33046;52.270;6.832;2024-02-26T11:20:54;8.75;;;7.15;;
47309;SDS011;33046;52.270;6.832;2024-02-26T11:23:02;9.88;;;7.30;;
47309;SDS011;33046;52.270;6.832;2024-02-26T11:25:10;9.00;;;7.13;;
47309;SDS011;33046;52.270;6.832;2024-02-26T11:27:17;8.65;;;6.70;;
47309;SDS011;33046;52.270;6.832;2024-02-26T11:29:27;9.50;;;7.28;;
47309;SDS011;33046;52.270;6.832;2024-02-26T11:31:36;13.98;;;9.02;;
47309;SDS011;33046;52.270;6.832;2024-02-26T11:33:44;8.30;;;6.32;;
47309;SDS011;33046;52.270;6.832;2024-02-26T11:35:54;7.88;;;6.43;;
47309;SDS011;33046;52.270;6.832;2024-02-26T11:38:01;7.22;;;5.43;;
47309;SDS011;33046;52.270;6.832;2024-02-26T11:40:10;6.95;;;5.85;;
47309;SDS011;33046;52.270;6.832;2024-02-26T11:42:18;6.78;;;5.90;;
47309;SDS011;33046;52.270;6.832;2024-02-26T11:44:29;6.43;;;5.40;;
47309;SDS011;33046;52.270;6.832;2024-02-26T11:46:38;6.93;;;6.13;;
47309;SDS011;33046;52.270;6.832;2024-02-26T11:48:46;7.38;;;6.47;;
47309;SDS011;33046;52.270;6.832;2024-02-26T11:50:55;6.40;;;5.80;;
47309;SDS011;33046;52.270;6.832;2024-02-26T11:53:20;7.57;;;6.75;;
47309;SDS011;33046;52.270;6.832;2024-02-26T11:55:31;7.90;;;6.32;;
47309;SDS011;33046;52.270;6.832;2024-02-26T11:57:38;7.85;;;6.32;;
47309;SDS011;33046;52.270;6.832;2024-02-26T11:59:46;6.38;;;5.68;;
47309;SDS011;33046;52.270;6.832;2024-02-26T12:01:53;7.25;;;6.55;;
47309;SDS011;33046;52.270;6.832;2024-02-26T12:04:00;6.82;;;6.05;;
47309;SDS011;33046;52.270;6.832;2024-02-26T12:06:09;6.95;;;6.10;;
47309;SDS011;33046;52.270;6.832;2024-02-26T12:08:16;7.07;;;6.18;;
47309;SDS011;33046;52.270;6.832;2024-02-26T12:10:23;7.03;;;5.95;;
47309;SDS011;33046;52.270;6.832;2024-02-26T12:12:31;7.25;;;5.82;;
47309;SDS011;33046;52.270;6.832;2024-02-26T12:14:38;6.20;;;5.22;;
47309;SDS011;33046;52.270;6.832;2024-02-26T12:16:46;6.63;;;5.65;;
47309;SDS011;33046;52.270;6.832;2024-02-26T12:18:53;10.73;;;5.88;;
47309;SDS011;33046;52.270;6.832;2024-02-26T12:21:01;7.03;;;5.72;;
47309;SDS011;33046;52.270;6.832;2024-02-26T12:23:13;7.43;;;6.30;;
47309;SDS011;33046;52.270;6.832;2024-02-26T12:25:22;7.03;;;6.28;;
47309;SDS011;33046;52.270;6.832;2024-02-26T12:27:30;6.85;;;5.43;;
47309;SDS011;33046;52.270;6.832;2024-02-26T12:29:37;6.90;;;6.25;;
47309;SDS011;33046;52.270;6.832;2024-02-26T12:31:43;13.23;;;7.25;;
47309;SDS011;33046;52.270;6.832;2024-02-26T12:33:51;6.97;;;6.18;;
47309;SDS011;33046;52.270;6.832;2024-02-26T12:35:58;7.47;;;6.20;;
47309;SDS011;33046;52.270;6.832;2024-02-26T12:38:05;7.13;;;6.43;;
47309;SDS011;33046;52.270;6.832;2024-02-26T12:40:13;8.07;;;5.95;;
47309;SDS011;33046;52.270;6.832;2024-02-26T12:42:20;6.78;;;5.25;;
47309;SDS011;33046;52.270;6.832;2024-02-26T12:44:27;6.43;;;5.03;;